Terminal Aerodrome Forecast
Issued by NWS

Home | Current Version | Previous Version | Text Only | Print | Product List | Glossary On
Versions: 1 2 3 4 5 6 7 8 9 10 11 12 13 14 15
000
FTAK31 PAJN 270500
TAFAYA
TAF
PAYA 270526Z 2706/2806 27006KT P6SM VCSH BKN015 BKN025 OVC050
     FM271200 27004KT P6SM -RA BKN015 OVC022
     FM272000 28007KT P6SM BKN025 OVC040
     FM280300 26006KT P6SM BKN040 BKN080
      AMD LTD TO CLD VIS AND WIND 2706/2710=

USA.gov is the U.S. government's official web portal to all federal, state and local government web resources and services.